ENSG/SOG METAR and TAF weather

Enter ICAO airport designator
Station Type Date Time Source
ENSG METAR 2022/01/26 14:50 UTC NOAA

ENSG 261450Z 24017G27KT 9999 -SHRASN SCT008 VV015 02/M01 Q1005 RMK WIND 3806FT 27036G46KT


Station Type Date Time Source
ENSG Decoded METAR 2022/01/26 14:50 UTC NOAA

Sogndal / Haukasen, Norway (ENSG) 61-09N 007-08E 497M
Jan 26, 2022 - 09:50 AM EST / 2022.01.26 1450 UTC
Wind: from the WSW (240 degrees) at 20 MPH (17 KT) gusting to 31 MPH (27 KT):0
Visibility: greater than 7 mile(s):0
Sky conditions: obscured
Weather: light rain showers, snow
Temperature: 35 F (2 C)
Windchill: 24 F (-4 C):1
Dew Point: 30 F (-1 C)
Relative Humidity: 80%
Pressure (altimeter): 29.68 in. Hg (1005 hPa)
ob: ENSG 261450Z 24017G27KT 9999 -SHRASN SCT008 VV015 02/M01 Q1005 RMK WIND 3806FT 27036G46KT
cycle: 15

Station Type Date Time Source
ENSG TAF UTC NOAA

Error!

Example: see airport list